Time;durP1;ratioP1;P1;durP2;ratioP2;P2;SDS_P1;SDS_P2;PMS_P1;PMS_P2;Temp;Humidity;BMP_temperature;BMP_pressure;BME280_temperature;BME280_humidity;BME280_pressure;Samples;Min_cycle;Max_cycle;Signal;HPM_P1;HPM_P2
2022/08/18 00:02:04;;;;;;;5.40;4.83;;;;;;;21.82;100.00;95870.19;5050103;27;105101;-61
2022/08/18 00:04:31;;;;;;;5.57;4.90;;;;;;;21.70;100.00;95883.66;5050977;27;103280;-61
2022/08/18 00:06:59;;;;;;;6.67;4.80;;;;;;;21.62;100.00;95892.63;5053505;27;101930;-61
2022/08/18 00:09:25;;;;;;;6.73;4.57;;;;;;;21.60;100.00;95894.09;5049370;27;105559;-61
2022/08/18 00:11:52;;;;;;;5.93;5.10;;;;;;;21.57;100.00;95890.13;5051345;27;101871;-61
2022/08/18 00:14:22;;;;;;;5.33;4.30;;;;;;;21.42;100.00;95898.84;5049896;27;104027;-61
2022/08/18 00:16:50;;;;;;;5.37;4.70;;;;;;;21.33;100.00;95903.53;5049532;27;104163;-61
2022/08/18 00:19:18;;;;;;;4.97;4.47;;;;;;;21.28;100.00;95909.16;5049675;27;101911;-61
2022/08/18 00:21:45;;;;;;;4.87;4.30;;;;;;;21.24;100.00;95912.81;5051258;27;102553;-61
2022/08/18 00:24:12;;;;;;;5.33;4.67;;;;;;;21.24;100.00;95919.03;5050681;27;101730;-61
2022/08/18 00:26:39;;;;;;;5.57;4.63;;;;;;;21.22;100.00;95928.59;5051247;27;101844;-60
2022/08/18 00:29:06;;;;;;;4.90;4.50;;;;;;;21.19;100.00;95942.78;5052372;27;105154;-60
2022/08/18 00:31:35;;;;;;;7.53;4.50;;;;;;;21.17;100.00;95945.00;5049743;27;102581;-61
2022/08/18 00:34:02;;;;;;;6.53;4.90;;;;;;;21.05;100.00;95953.03;5049687;27;105150;-61
2022/08/18 00:36:31;;;;;;;4.93;4.47;;;;;;;21.04;100.00;95963.03;5050417;27;103191;-61
2022/08/18 00:38:58;;;;;;;6.27;4.77;;;;;;;21.06;100.00;95957.31;5050785;27;101695;-61
2022/08/18 00:41:25;;;;;;;5.43;4.67;;;;;;;20.98;100.00;95958.16;5049831;27;103694;-61
2022/08/18 00:43:53;;;;;;;5.10;4.60;;;;;;;20.99;100.00;95941.59;5050393;27;102870;-60
2022/08/18 00:46:25;;;;;;;5.33;4.93;;;;;;;20.90;100.00;95934.66;5049673;27;102188;-60
2022/08/18 00:48:53;;;;;;;5.67;5.17;;;;;;;20.88;100.00;95940.34;5051960;27;105470;-60
2022/08/18 00:51:24;;;;;;;9.23;4.90;;;;;;;20.84;100.00;95950.25;5050789;27;101873;-60
2022/08/18 00:53:58;;;;;;;5.23;4.60;;;;;;;20.83;100.00;95947.88;5049517;27;102923;-61
2022/08/18 00:56:30;;;;;;;5.40;4.90;;;;;;;20.83;100.00;95955.97;5048828;27;105318;-60
2022/08/18 00:59:03;;;;;;;4.90;4.50;;;;;;;20.82;100.00;95957.88;5050247;27;101686;-61
2022/08/18 01:01:33;;;;;;;4.90;4.50;;;;;;;20.76;100.00;95958.41;5050477;27;104466;-61
2022/08/18 01:04:06;;;;;;;5.30;4.80;;;;;;;20.82;100.00;95965.22;5050111;27;103244;-61
2022/08/18 01:06:39;;;;;;;5.10;4.60;;;;;;;20.85;100.00;95961.84;5050847;27;101751;-60
2022/08/18 01:09:07;;;;;;;4.60;4.23;;;;;;;20.79;100.00;95955.03;5050890;27;102814;-60
2022/08/18 01:11:36;;;;;;;5.03;4.63;;;;;;;20.73;100.00;95945.53;5052790;27;104549;-60
2022/08/18 01:14:05;;;;;;;5.20;4.70;;;;;;;20.72;100.00;95947.44;5048304;27;105855;-61
2022/08/18 01:22:13;;;;;;;4.93;4.53;;;;;;;20.70;100.00;95954.31;5050332;27;101680;-60
2022/08/18 01:27:30;;;;;;;5.90;4.40;;;;;;;20.60;100.00;95949.25;5050542;27;101721;-61
2022/08/18 01:29:57;;;;;;;4.33;4.03;;;;;;;20.53;100.00;95946.25;5050714;27;102898;-61
2022/08/18 01:32:25;;;;;;;5.20;4.80;;;;;;;20.56;100.00;95959.91;5049240;27;101807;-61
2022/08/18 01:34:52;;;;;;;5.17;4.03;;;;;;;20.49;100.00;95973.09;5053893;27;101865;-61
2022/08/18 01:37:24;;;;;;;4.57;4.17;;;;;;;20.48;100.00;95959.94;5048402;27;105500;-60
2022/08/18 01:39:53;;;;;;;4.93;4.53;;;;;;;20.38;100.00;95955.66;5050343;27;101732;-61
2022/08/18 01:42:19;;;;;;;4.20;3.90;;;;;;;20.44;100.00;95953.59;5048741;27;105231;-61
2022/08/18 01:44:50;;;;;;;4.50;4.20;;;;;;;20.34;100.00;95953.94;5048060;27;105850;-60
2022/08/18 01:47:19;;;;;;;4.47;4.07;;;;;;;20.43;100.00;95946.63;5048534;27;101837;-61
2022/08/18 01:49:47;;;;;;;4.40;4.10;;;;;;;20.39;100.00;95932.16;5050399;27;102202;-61
2022/08/18 01:52:19;;;;;;;4.80;4.50;;;;;;;20.48;100.00;95932.94;5047930;27;105442;-61
2022/08/18 01:54:47;;;;;;;5.43;4.43;;;;;;;20.32;100.00;95939.97;5048421;27;101965;-60
2022/08/18 01:57:18;;;;;;;5.57;4.90;;;;;;;20.28;100.00;95944.44;5052861;27;102399;-61
2022/08/18 01:59:45;;;;;;;4.80;4.40;;;;;;;20.32;100.00;95937.28;5049982;27;102118;-61
2022/08/18 02:02:16;;;;;;;5.50;4.97;;;;;;;20.33;100.00;95936.16;5048427;27;103802;-61
2022/08/18 02:04:44;;;;;;;4.97;4.47;;;;;;;20.21;100.00;95938.75;5049409;27;102633;-61
2022/08/18 02:07:13;;;;;;;5.27;4.77;;;;;;;20.21;100.00;95927.94;5048616;27;102000;-61
2022/08/18 02:09:42;;;;;;;5.20;4.80;;;;;;;20.22;100.00;95922.19;5048457;27;105545;-61
2022/08/18 02:12:10;;;;;;;5.33;4.90;;;;;;;20.23;100.00;95920.28;5047819;27;105883;-60
2022/08/18 02:14:39;;;;;;;5.10;4.60;;;;;;;20.20;100.00;95927.13;5048278;27;102066;-60
2022/08/18 02:17:08;;;;;;;5.23;4.80;;;;;;;20.25;100.00;95923.47;5049430;27;102826;-60
2022/08/18 02:19:37;;;;;;;5.43;4.83;;;;;;;20.13;100.00;95918.75;5052696;27;102703;-61
2022/08/18 02:22:06;;;;;;;4.50;4.20;;;;;;;20.13;100.00;95904.44;5049455;27;104433;-61
2022/08/18 02:24:33;;;;;;;5.23;4.77;;;;;;;20.13;100.00;95915.25;5048701;27;105784;-61
2022/08/18 02:27:01;;;;;;;4.70;4.33;;;;;;;20.12;100.00;95919.81;5051661;27;101985;-61
2022/08/18 02:29:28;;;;;;;4.90;4.40;;;;;;;20.03;100.00;95912.84;5051519;27;103590;-60
2022/08/18 02:31:56;;;;;;;4.50;4.20;;;;;;;19.96;100.00;95904.44;5052024;27;102708;-61
2022/08/18 02:34:24;;;;;;;5.27;4.77;;;;;;;19.98;100.00;95908.41;5051561;27;101904;-61
2022/08/18 02:36:52;;;;;;;4.70;4.30;;;;;;;19.91;100.00;95915.41;5051511;27;105196;-60
2022/08/18 02:39:20;;;;;;;4.40;4.03;;;;;;;19.86;100.00;95916.38;5051984;27;102666;-60
2022/08/18 02:41:47;;;;;;;4.70;4.20;;;;;;;19.86;100.00;95913.69;5054924;27;102043;-61
2022/08/18 02:44:14;;;;;;;4.83;4.40;;;;;;;19.79;100.00;95904.47;5051050;27;105322;-61
2022/08/18 02:46:42;;;;;;;5.00;4.60;;;;;;;19.83;100.00;95900.03;5052754;27;101924;-61
2022/08/18 02:49:11;;;;;;;4.63;4.33;;;;;;;19.87;100.00;95907.16;5051363;27;105500;-61
2022/08/18 02:51:38;;;;;;;5.17;4.77;;;;;;;19.78;100.00;95894.81;5052002;27;102691;-60
2022/08/18 02:54:08;;;;;;;4.80;4.40;;;;;;;19.86;100.00;95902.88;5052404;27;101869;-60
2022/08/18 02:56:35;;;;;;;4.20;3.90;;;;;;;20.20;100.00;95899.31;5052611;27;102228;-61
2022/08/18 02:59:06;;;;;;;4.13;3.90;;;;;;;20.49;100.00;95902.88;5051339;27;102664;-61
2022/08/18 03:01:37;;;;;;;4.43;4.13;;;;;;;20.45;100.00;95901.16;5056062;27;101749;-60
2022/08/18 03:04:06;;;;;;;4.60;4.20;;;;;;;20.46;100.00;95906.25;5052088;27;102674;-60
2022/08/18 03:06:37;;;;;;;4.83;4.43;;;;;;;20.56;100.00;95902.38;5052462;27;101883;-60
2022/08/18 03:09:06;;;;;;;4.83;4.53;;;;;;;20.44;100.00;95900.34;5050754;27;105263;-61
2022/08/18 03:11:34;;;;;;;4.70;4.30;;;;;;;20.53;100.00;95908.41;5051621;27;102615;-60
2022/08/18 03:14:01;;;;;;;4.87;4.47;;;;;;;19.98;100.00;95907.63;5052167;27;101952;-60
2022/08/18 03:16:31;;;;;;;4.93;4.10;;;;;;;20.24;100.00;95898.38;5051018;27;105481;-60
2022/08/18 03:19:00;;;;;;;4.23;3.93;;;;;;;20.58;100.00;95895.53;5050420;27;105472;-61
2022/08/18 03:21:29;;;;;;;4.63;4.30;;;;;;;20.59;100.00;95891.72;5050744;27;101906;-61
2022/08/18 03:23:58;;;;;;;4.43;4.03;;;;;;;20.64;100.00;95890.72;5053717;27;103583;-61
2022/08/18 03:26:26;;;;;;;4.70;4.30;;;;;;;20.64;100.00;95885.31;5051992;27;101894;-61
2022/08/18 03:28:55;;;;;;;3.97;3.73;;;;;;;20.51;100.00;95883.66;5052213;27;102320;-61
2022/08/18 03:31:24;;;;;;;4.10;3.80;;;;;;;20.44;100.00;95881.44;5049847;27;106169;-60
2022/08/18 03:33:53;;;;;;;4.17;3.87;;;;;;;20.26;100.00;95885.34;5051685;27;101891;-60
2022/08/18 03:36:24;;;;;;;4.23;3.83;;;;;;;20.02;100.00;95886.97;5051478;27;102397;-61
2022/08/18 03:38:52;;;;;;;4.43;4.13;;;;;;;19.89;100.00;95894.13;5051589;27;102612;-61
2022/08/18 03:41:23;;;;;;;5.63;5.13;;;;;;;19.66;100.00;95894.66;5051992;27;102097;-60
2022/08/18 03:43:51;;;;;;;5.30;4.47;;;;;;;19.51;100.00;95895.16;5052004;27;102338;-60
2022/08/18 03:46:21;;;;;;;4.93;4.53;;;;;;;19.44;100.00;95898.31;5054552;27;102533;-60
2022/08/18 03:48:49;;;;;;;5.43;4.70;;;;;;;19.44;100.00;95898.31;5050462;27;105311;-60
2022/08/18 03:51:19;;;;;;;5.13;4.67;;;;;;;19.43;100.00;95893.25;5049837;27;105875;-61
2022/08/18 03:53:47;;;;;;;5.40;5.00;;;;;;;19.39;100.00;95895.78;5050271;27;101892;-60
2022/08/18 03:56:16;;;;;;;4.83;4.43;;;;;;;19.47;100.00;95888.81;5049766;27;105523;-61
2022/08/18 03:58:48;;;;;;;4.47;4.17;;;;;;;19.90;100.00;95890.31;5048506;27;105893;-61
2022/08/18 04:01:18;;;;;;;4.50;4.10;;;;;;;20.13;100.00;95878.25;5048873;27;101779;-60
2022/08/18 04:03:46;;;;;;;4.97;4.60;;;;;;;20.11;100.00;95874.28;5051052;27;102377;-60
2022/08/18 04:06:15;;;;;;;4.30;4.00;;;;;;;20.31;100.00;95870.84;5047932;27;103097;-61
2022/08/18 04:08:43;;;;;;;4.53;4.13;;;;;;;20.36;100.00;95878.78;5053021;27;101914;-61
2022/08/18 04:11:13;;;;;;;4.30;3.97;;;;;;;20.48;100.00;95881.63;5049915;27;102528;-61
2022/08/18 04:13:40;;;;;;;4.33;4.03;;;;;;;20.34;100.00;95884.53;5051063;27;101864;-61
2022/08/18 04:16:09;;;;;;;5.00;4.60;;;;;;;20.09;100.00;95895.38;5051252;27;102891;-61
2022/08/18 04:18:37;;;;;;;4.70;4.30;;;;;;;19.73;100.00;95892.28;5050043;27;102773;-60
2022/08/18 04:21:06;;;;;;;4.77;4.30;;;;;;;19.52;100.00;95892.13;5049389;27;101938;-61
2022/08/18 04:23:34;;;;;;;4.87;4.37;;;;;;;19.39;100.00;95874.19;5050496;27;102261;-61
2022/08/18 04:26:02;;;;;;;6.27;4.20;;;;;;;19.51;100.00;95860.09;5050026;27;104207;-61
2022/08/18 04:28:30;;;;;;;4.60;4.20;;;;;;;19.49;100.00;95862.28;5050848;27;102085;-61
2022/08/18 04:30:58;;;;;;;5.10;4.60;;;;;;;19.46;100.00;95855.63;5051777;27;105539;-61
2022/08/18 04:33:28;;;;;;;5.40;5.00;;;;;;;19.37;100.00;95864.84;5050539;27;101911;-61
2022/08/18 04:35:55;;;;;;;5.00;4.70;;;;;;;19.35;100.00;95869.78;5049342;27;105180;-61
2022/08/18 04:38:23;;;;;;;5.10;4.70;;;;;;;19.22;100.00;95881.50;5049946;27;102624;-61
2022/08/18 04:40:50;;;;;;;5.80;5.23;;;;;;;19.27;100.00;95892.94;5050592;27;101900;-61
2022/08/18 04:43:18;;;;;;;5.27;4.77;;;;;;;19.45;100.00;95893.72;5049433;27;106951;-61
2022/08/18 04:45:46;;;;;;;5.97;5.47;;;;;;;19.58;100.00;95881.97;5050351;27;102844;-61
2022/08/18 04:48:15;;;;;;;6.03;5.43;;;;;;;19.83;100.00;95879.22;5048399;27;102221;-61
2022/08/18 04:50:44;;;;;;;5.63;5.13;;;;;;;19.97;100.00;95882.53;5049167;27;103672;-61
2022/08/18 04:55:59;;;;;;;5.50;5.10;;;;;;;20.12;100.00;95882.03;5049369;27;105488;-61
2022/08/18 04:58:26;;;;;;;7.30;5.53;;;;;;;20.10;100.00;95889.69;5049432;27;104449;-61
2022/08/18 05:00:58;;;;;;;5.30;4.80;;;;;;;20.29;100.00;95892.00;5049205;27;101966;-61
2022/08/18 05:03:26;;;;;;;7.00;5.17;;;;;;;20.36;100.00;95892.28;5050715;27;102660;-61
2022/08/18 05:05:57;;;;;;;5.20;4.60;;;;;;;20.45;100.00;95898.44;5043798;27;105753;-61
2022/08/18 05:08:24;;;;;;;5.67;4.67;;;;;;;20.53;100.00;95897.59;5040045;27;101739;-60
2022/08/18 05:10:54;;;;;;;5.20;4.60;;;;;;;20.76;100.00;95891.63;5030408;28;102422;-60
2022/08/18 05:13:22;;;;;;;5.07;4.63;;;;;;;20.73;100.00;95891.50;5031459;27;105633;-61
2022/08/18 05:15:53;;;;;;;5.00;4.50;;;;;;;20.64;100.00;95888.03;5046373;27;105845;-61
2022/08/18 05:18:23;;;;;;;4.87;4.47;;;;;;;20.74;100.00;95899.28;5048390;27;105922;-61
2022/08/18 05:20:51;;;;;;;4.97;4.47;;;;;;;20.80;100.00;95910.69;5031549;27;101710;-61
2022/08/18 05:23:20;;;;;;;4.70;4.30;;;;;;;20.86;100.00;95936.41;5028731;28;105753;-61
2022/08/18 05:25:48;;;;;;;4.50;4.10;;;;;;;20.90;100.00;95934.66;5045936;27;105859;-61
2022/08/18 05:28:17;;;;;;;4.17;3.80;;;;;;;21.01;100.00;95939.38;5032314;27;102070;-61
2022/08/18 05:30:44;;;;;;;4.10;3.80;;;;;;;21.01;100.00;95941.28;5027697;28;105652;-61
2022/08/18 05:33:11;;;;;;;4.97;4.57;;;;;;;20.95;100.00;95938.00;5027582;28;106867;-61
2022/08/18 05:35:45;;;;;;;4.60;4.20;;;;;;;20.87;100.00;95933.38;5033367;28;101881;-61
2022/08/18 05:38:29;;;;;;;5.00;4.57;;;;;;;20.66;100.00;95950.66;5027856;28;106166;-60
2022/08/18 05:41:07;;;;;;;5.13;4.73;;;;;;;20.77;100.00;95946.47;5028495;28;101906;-61
2022/08/18 05:43:36;;;;;;;4.37;3.90;;;;;;;21.32;100.00;95931.72;5028739;28;105869;-61
2022/08/18 05:46:07;;;;;;;4.57;4.27;;;;;;;21.60;100.00;95937.38;5029240;28;102700;-61
2022/08/18 05:48:34;;;;;;;4.47;4.10;;;;;;;21.60;100.00;95948.22;5029939;27;101707;-60
2022/08/18 05:51:08;;;;;;;4.97;4.57;;;;;;;21.58;100.00;95955.88;5030040;28;102541;-61
2022/08/18 05:59:14;;;;;;;4.50;4.20;;;;;;;21.74;100.00;95956.91;5034319;27;102363;-61
2022/08/18 06:01:50;;;;;;;4.53;4.20;;;;;;;21.92;100.00;95964.53;5033088;28;101871;-61
2022/08/18 06:04:28;;;;;;;5.00;4.60;;;;;;;21.94;100.00;95958.78;5033273;28;102260;-60
2022/08/18 06:06:57;;;;;;;4.70;4.30;;;;;;;22.08;100.00;95946.53;5032722;28;102594;-60
2022/08/18 06:09:32;;;;;;;4.50;4.10;;;;;;;21.88;100.00;95958.22;5031732;28;101868;-61
2022/08/18 06:12:07;;;;;;;4.23;3.83;;;;;;;21.92;100.00;95953.72;5033216;28;103430;-61
2022/08/18 06:14:38;;;;;;;4.10;3.90;;;;;;;21.90;100.00;95941.63;5030825;28;105483;-61
2022/08/18 06:17:17;;;;;;;6.37;4.50;;;;;;;21.55;100.00;95959.22;5031359;28;101951;-61
2022/08/18 06:19:53;;;;;;;4.63;4.00;;;;;;;21.74;100.00;95960.38;5031749;28;105242;-61
2022/08/18 06:22:31;;;;;;;4.43;4.00;;;;;;;21.81;100.00;95957.16;5034456;28;105746;-60
2022/08/18 06:25:07;;;;;;;4.80;4.40;;;;;;;21.85;100.00;95952.66;5032911;27;102798;-60
2022/08/18 06:27:40;;;;;;;4.20;3.80;;;;;;;21.99;100.00;95961.28;5030872;28;105498;-60
2022/08/18 06:30:14;;;;;;;4.60;4.03;;;;;;;22.01;100.00;95973.38;5032959;28;101844;-61
2022/08/18 06:33:02;;;;;;;5.67;4.00;;;;;;;21.86;100.00;95970.47;5031418;28;105462;-61
2022/08/18 06:35:36;;;;;;;5.20;4.70;;;;;;;21.27;100.00;95955.44;5030759;28;105251;-61
2022/08/18 06:38:38;;;;;;;4.17;3.77;;;;;;;21.41;100.00;95942.47;5032608;28;102042;-60
2022/08/18 06:41:14;;;;;;;3.83;3.53;;;;;;;21.62;100.00;95941.34;5031300;28;105732;-61
2022/08/18 06:43:57;;;;;;;4.60;4.20;;;;;;;21.62;100.00;95919.69;5032100;28;102641;-61
2022/08/18 06:46:40;;;;;;;3.90;3.60;;;;;;;21.68;100.00;95812.09;5035930;28;101718;-61
2022/08/18 06:49:12;;;;;;;4.90;4.40;;;;;;;21.22;100.00;95742.00;5032191;27;103078;-61
2022/08/18 06:51:40;;;;;;;4.73;4.30;;;;;;;20.64;100.00;95785.34;5032333;28;101702;-61
2022/08/18 06:54:25;;;;;;;5.03;4.53;;;;;;;20.53;100.00;95889.50;5032467;27;102545;-61
2022/08/18 06:56:56;;;;;;;6.60;4.90;;;;;;;20.42;100.00;95962.00;5031988;28;102828;-60
2022/08/18 06:59:26;;;;;;;5.30;4.80;;;;;;;20.33;100.00;95969.34;5030638;28;101845;-61
2022/08/18 07:01:56;;;;;;;6.50;4.70;;;;;;;20.35;100.00;95948.22;5032585;28;102353;-61
2022/08/18 07:04:40;;;;;;;5.13;4.50;;;;;;;20.73;100.00;95926.63;5031796;28;102838;-61
2022/08/18 07:07:16;;;;;;;5.30;4.90;;;;;;;20.68;100.00;95910.59;5035753;28;102073;-61
2022/08/18 07:09:43;;;;;;;4.60;4.20;;;;;;;20.58;100.00;95914.44;5031047;27;103055;-61
2022/08/18 07:12:20;;;;;;;4.60;4.20;;;;;;;21.11;100.00;95897.66;5031826;28;101778;-60
2022/08/18 07:14:50;;;;;;;4.73;4.33;;;;;;;21.36;100.00;95904.81;5032250;27;102012;-61
2022/08/18 07:17:22;;;;;;;5.30;4.80;;;;;;;20.65;100.00;95912.03;5031124;27;104437;-60
2022/08/18 07:20:02;;;;;;;4.43;4.03;;;;;;;21.16;100.00;95900.16;5030441;28;102495;-61
2022/08/18 07:22:29;;;;;;;5.20;4.80;;;;;;;20.82;100.00;95892.25;5031951;28;102368;-61
2022/08/18 07:24:58;;;;;;;4.50;4.10;;;;;;;21.32;100.00;95903.88;5029890;28;107200;-61
2022/08/18 07:27:45;;;;;;;4.63;4.20;;;;;;;21.60;100.00;95885.97;5030506;28;101929;-61
2022/08/18 07:30:25;;;;;;;5.43;5.00;;;;;;;21.30;100.00;95879.06;5033276;28;105360;-60
2022/08/18 07:32:58;;;;;;;4.60;4.20;;;;;;;21.13;100.00;95895.41;5032039;28;101760;-61
2022/08/18 07:35:38;;;;;;;4.97;4.63;;;;;;;21.02;100.00;95913.13;5030376;28;104764;-61
2022/08/18 07:38:16;;;;;;;5.57;4.93;;;;;;;21.21;100.00;95935.91;5031463;27;102533;-61
2022/08/18 07:40:51;;;;;;;4.90;4.50;;;;;;;21.25;100.00;95936.06;5030319;28;101949;-61
2022/08/18 07:43:29;;;;;;;5.30;4.80;;;;;;;21.22;100.00;95939.41;5031883;27;102263;-61
2022/08/18 07:46:01;;;;;;;5.13;4.73;;;;;;;21.58;100.00;95936.94;5031043;28;102533;-61
2022/08/18 07:48:32;;;;;;;5.20;4.67;;;;;;;21.69;100.00;95908.38;5031751;27;101739;-61
2022/08/18 07:51:07;;;;;;;6.03;4.83;;;;;;;21.45;100.00;95908.22;5031796;28;102539;-61
2022/08/18 07:53:46;;;;;;;5.03;4.53;;;;;;;21.83;100.00;95927.81;5034209;27;102581;-60
2022/08/18 07:56:23;;;;;;;5.17;4.77;;;;;;;21.89;100.00;95935.41;5030139;28;105639;-61
2022/08/18 07:58:58;;;;;;;5.23;4.73;;;;;;;21.81;100.00;95919.25;5029409;28;105458;-60
2022/08/18 08:01:34;;;;;;;5.10;4.70;;;;;;;22.04;100.00;95907.72;5031473;27;101759;-61
2022/08/18 08:04:12;;;;;;;5.13;4.67;;;;;;;22.01;100.00;95904.91;5029624;28;105331;-61
2022/08/18 08:06:42;;;;;;;6.17;5.67;;;;;;;21.53;100.00;95912.78;5030773;28;103011;-61
2022/08/18 08:09:22;;;;;;;5.57;5.07;;;;;;;21.64;100.00;95914.75;5031520;27;102063;-61
2022/08/18 08:11:56;;;;;;;5.57;5.07;;;;;;;21.48;100.00;95908.34;5031268;28;102806;-61
2022/08/18 08:14:37;;;;;;;5.53;5.03;;;;;;;22.15;100.00;95902.66;5030420;28;103323;-61
2022/08/18 08:17:12;;;;;;;5.53;4.90;;;;;;;22.05;100.00;95901.19;5034651;28;101769;-61
2022/08/18 08:19:52;;;;;;;5.70;5.07;;;;;;;22.18;100.00;95908.19;5028787;28;105501;-61
2022/08/18 08:22:23;;;;;;;6.97;5.30;;;;;;;22.20;100.00;95897.84;5029511;27;101859;-61
2022/08/18 08:25:01;;;;;;;5.77;5.27;;;;;;;22.23;100.00;95883.59;5029790;28;105226;-61
2022/08/18 08:27:44;;;;;;;5.73;5.23;;;;;;;22.30;100.00;95875.75;5029054;28;105597;-61
2022/08/18 08:30:16;;;;;;;6.27;5.77;;;;;;;22.24;100.00;95879.00;5030968;28;101814;-61
2022/08/18 08:32:52;;;;;;;5.40;4.90;;;;;;;22.52;100.00;95877.25;5031239;27;102896;-61
2022/08/18 08:35:26;;;;;;;5.40;4.97;;;;;;;22.71;100.00;95877.47;5028686;28;105493;-61
2022/08/18 08:37:58;;;;;;;5.83;5.43;;;;;;;22.96;100.00;95881.75;5030851;28;101831;-61
2022/08/18 08:40:31;;;;;;;5.63;5.13;;;;;;;23.09;100.00;95878.69;5032230;28;105300;-61
2022/08/18 08:43:03;;;;;;;6.20;5.70;;;;;;;23.08;100.00;95870.88;5030537;28;101846;-61
2022/08/18 08:45:35;;;;;;;6.03;5.23;;;;;;;22.94;100.00;95873.19;5030833;28;102384;-61
2022/08/18 08:48:08;;;;;;;5.53;5.03;;;;;;;23.02;100.00;95886.63;5029815;28;102744;-61
2022/08/18 08:50:41;;;;;;;7.63;5.50;;;;;;;22.54;100.00;95886.63;5030729;28;101719;-61
2022/08/18 08:53:18;;;;;;;5.70;5.20;;;;;;;23.05;100.00;95894.06;5030532;28;102900;-61
2022/08/18 08:55:50;;;;;;;5.47;5.07;;;;;;;23.22;100.00;95880.25;5028478;28;104053;-61
2022/08/18 08:58:22;;;;;;;5.57;5.00;;;;;;;23.47;100.00;95887.22;5028974;28;102411;-61
2022/08/18 09:00:53;;;;;;;5.80;5.20;;;;;;;23.44;100.00;95871.63;5030583;28;102812;-61
2022/08/18 09:03:32;;;;;;;5.20;4.80;;;;;;;23.71;100.00;95864.66;5032050;28;103741;-61
2022/08/18 09:06:10;;;;;;;5.20;4.80;;;;;;;23.78;100.00;95859.41;5029010;28;105114;-61
2022/08/18 09:09:12;;;;;;;5.87;4.10;;;;;;;24.23;100.00;95849.78;5062477;27;105861;-61
2022/08/18 09:12:04;;;;;;;4.23;3.93;;;;;;;24.14;100.00;95862.75;5016427;27;102012;-61
2022/08/18 09:15:07;;;;;;;4.30;4.00;;;;;;;23.79;100.00;95858.25;5028403;28;105235;-61
2022/08/18 09:18:04;;;;;;;4.87;4.47;;;;;;;24.04;100.00;95857.03;5029421;28;102544;-61
2022/08/18 09:20:49;;;;;;;4.53;4.20;;;;;;;24.26;100.00;95867.31;5030567;28;101736;-61
2022/08/18 09:23:21;;;;;;;4.07;3.77;;;;;;;24.91;100.00;95858.47;5030167;28;102439;-61
2022/08/18 09:25:52;;;;;;;3.87;3.57;;;;;;;25.31;100.00;95838.03;5031575;28;105496;-61
2022/08/18 09:28:22;;;;;;;5.07;3.90;;;;;;;25.51;100.00;95830.66;5030321;28;101816;-61
2022/08/18 09:31:14;;;;;;;4.10;3.80;;;;;;;24.66;100.00;95827.97;5029631;28;102496;-61
2022/08/18 09:34:07;;;;;;;5.13;4.00;;;;;;;24.30;100.00;95833.66;5031103;27;102171;-61
2022/08/18 09:36:58;;;;;;;4.53;4.13;;;;;;;24.53;100.00;95842.75;5032077;28;102588;-61
2022/08/18 09:42:26;;;;;;;4.20;3.90;;;;;;;24.98;100.00;95825.97;5033699;28;101705;-61
2022/08/18 09:45:03;;;;;;;4.20;3.90;;;;;;;24.89;100.00;95828.09;5032200;28;102461;-61
2022/08/18 09:48:22;;;;;;;5.03;4.57;;;;;;;24.88;100.00;95815.66;5032737;27;102747;-61
2022/08/18 09:51:23;;;;;;;3.93;3.63;;;;;;;25.60;100.00;95826.56;4977781;28;101875;-61
2022/08/18 09:54:13;;;;;;;4.93;4.50;;;;;;;25.84;100.00;95828.19;4973658;28;106240;-61
2022/08/18 09:57:21;;;;;;;5.23;4.83;;;;;;;25.52;100.00;95845.84;4991329;28;101994;-61
2022/08/18 10:00:11;;;;;;;3.90;3.60;;;;;;;25.50;100.00;95850.88;4931315;28;102259;-61
2022/08/18 10:03:26;;;;;;;4.97;4.57;;;;;;;25.38;100.00;95846.34;4990154;28;105942;-61
2022/08/18 10:06:18;;;;;;;5.23;3.83;;;;;;;24.98;100.00;95847.75;4973992;28;102165;-61
2022/08/18 10:09:17;;;;;;;3.60;3.30;;;;;;;25.51;100.00;95845.03;4974162;28;105892;-61
2022/08/18 10:12:00;;;;;;;3.80;3.50;;;;;;;25.32;100.00;95849.69;4956791;28;105457;-61
2022/08/18 10:14:52;;;;;;;4.20;3.90;;;;;;;25.87;100.00;95851.97;4990367;28;102354;-61
2022/08/18 10:17:37;;;;;;;3.30;3.00;;;;;;;26.47;100.00;95856.63;4976559;28;105682;-61
2022/08/18 10:20:20;;;;;;;3.93;3.70;;;;;;;25.16;100.00;95860.59;4990870;28;102242;-61
2022/08/18 10:22:49;;;;;;;6.23;3.67;;;;;;;25.81;100.00;95846.06;4973662;28;105659;-61
2022/08/18 10:25:32;;;;;;;4.73;3.77;;;;;;;25.96;100.00;95852.59;5021078;28;102955;-61
2022/08/18 10:28:04;;;;;;;3.90;3.60;;;;;;;26.18;100.00;95858.09;5032784;28;101790;-61
2022/08/18 10:31:02;;;;;;;4.00;3.70;;;;;;;26.78;100.00;95880.94;5032891;28;102758;-61
2022/08/18 10:33:55;;;;;;;3.83;3.50;;;;;;;26.70;100.00;95884.72;5029112;27;103520;-61
2022/08/18 10:36:55;;;;;;;3.57;3.37;;;;;;;26.64;100.00;95888.91;5031370;28;101938;-61
2022/08/18 10:39:27;;;;;;;3.90;3.60;;;;;;;26.47;100.00;95876.50;4973498;28;105783;-61
2022/08/18 10:42:04;;;;;;;3.97;3.63;;;;;;;26.42;100.00;95876.81;4993207;28;102720;-61
2022/08/18 10:44:40;;;;;;;4.27;3.60;;;;;;;26.95;100.00;95886.69;4972647;28;105447;-61
2022/08/18 10:47:08;;;;;;;3.60;3.40;;;;;;;27.38;100.00;95874.47;4989021;28;103057;-61
2022/08/18 10:49:36;;;;;;;3.47;3.17;;;;;;;28.03;99.99;95875.72;4973627;28;102055;-61
2022/08/18 10:52:39;;;;;;;4.13;3.47;;;;;;;28.12;94.33;95865.28;4973384;28;105810;-61
2022/08/18 10:55:21;;;;;;;3.53;3.33;;;;;;;28.30;94.39;95856.09;4989437;28;102622;-61
2022/08/18 10:58:03;;;;;;;3.80;3.50;;;;;;;28.79;91.74;95853.03;4990407;28;102022;-61
2022/08/18 11:00:46;;;;;;;3.83;3.60;;;;;;;28.02;90.29;95866.75;4989844;28;102346;-61
2022/08/18 11:03:26;;;;;;;3.60;3.30;;;;;;;28.55;93.64;95857.13;4989597;28;103051;-61
2022/08/18 11:06:02;;;;;;;3.80;3.50;;;;;;;28.74;86.01;95840.50;4976563;28;101929;-61
2022/08/18 11:08:30;;;;;;;4.00;3.70;;;;;;;28.48;88.17;95821.53;4972577;28;105900;-61
2022/08/18 11:11:07;;;;;;;4.03;3.70;;;;;;;26.98;100.00;95803.31;4973187;28;102139;-61
2022/08/18 11:13:48;;;;;;;3.40;3.10;;;;;;;27.38;100.00;95808.94;5010694;28;103067;-61
2022/08/18 11:16:28;;;;;;;3.77;3.47;;;;;;;27.73;100.00;95804.69;5029915;28;105456;-61
2022/08/18 11:19:03;;;;;;;3.57;3.37;;;;;;;27.93;100.00;95791.66;5032226;28;101854;-61
2022/08/18 11:21:33;;;;;;;4.30;3.97;;;;;;;27.71;98.96;95798.03;5030657;28;105717;-61
2022/08/18 11:24:06;;;;;;;4.30;3.77;;;;;;;28.21;97.72;95794.66;5029761;28;106307;-61
2022/08/18 11:26:35;;;;;;;3.20;3.00;;;;;;;28.51;94.45;95774.25;5030621;28;101978;-61
2022/08/18 11:29:23;;;;;;;3.57;3.20;;;;;;;28.71;91.98;95764.63;5033380;28;103607;-61
2022/08/18 11:31:55;;;;;;;3.78;3.30;;;;;;;28.74;95.80;95741.97;5031842;28;101687;-61
2022/08/18 11:34:29;;;;;;;3.65;3.40;;;;;;;29.05;89.26;95733.16;5031711;28;104587;-61
2022/08/18 11:37:01;;;;;;;3.92;3.28;;;;;;;29.49;81.27;95749.41;5031386;28;101978;-61
2022/08/18 11:39:29;;;;;;;3.78;3.45;;;;;;;29.37;80.34;95747.78;5030413;28;101797;-61
2022/08/18 11:41:58;;;;;;;3.65;3.40;;;;;;;29.40;83.56;95732.53;5031647;27;102808;-61
2022/08/18 11:44:31;;;;;;;3.75;3.45;;;;;;;29.65;72.84;95717.78;5031093;28;102585;-61
2022/08/18 11:47:14;;;;;;;3.78;3.47;;;;;;;28.04;91.13;95714.06;5030077;28;101961;-61
2022/08/18 11:49:52;;;;;;;4.35;3.67;;;;;;;28.72;85.26;95710.69;5032714;28;105385;-61
2022/08/18 11:52:24;;;;;;;3.40;3.10;;;;;;;28.94;85.70;95717.84;5031601;28;101666;-61
2022/08/18 11:54:52;;;;;;;3.65;3.35;;;;;;;28.94;92.05;95706.91;5031707;28;101678;-61
2022/08/18 11:57:42;;;;;;;3.97;3.70;;;;;;;29.02;83.92;95705.78;5028712;27;105985;-61
2022/08/18 12:00:45;;;;;;;4.00;3.70;;;;;;;29.56;77.42;95731.06;5029914;28;101887;-61
2022/08/18 12:03:22;;;;;;;3.90;3.60;;;;;;;29.71;77.32;95734.63;5024297;27;102594;-61
2022/08/18 12:05:53;;;;;;;4.55;3.60;;;;;;;28.20;90.09;95724.72;5030628;28;102655;-61
2022/08/18 12:08:34;;;;;;;3.97;3.53;;;;;;;28.72;90.43;95716.16;5029775;28;101905;-61